Proctor, Minnesota
Current Conditions -  °F | °C
As of 9:55 PM on Sunday 25 Jan 2015 (Local Time) from KDLH Reporting Station
Overcast Overcast  
Wind Chill:   Ceiling: 4700
Heat Index: 18°   Visibility: 10mi
Dew Point: 10°   Wind: 7mph
Humidity: 71%   Direction: 180°S
Pressure: 29.92"   Gusts: NA
Location:  46.7582°N, 92.2733°W
Report Text: KDLH 260355Z 18006KT 10SM OVC047 M08/M12 A2992 RMK AO2 SLP160 T10781122
Loading
Personal Weather Stations






























Interactive Weather Map New forecast layout! Learn more

10-Day Weather Forecast

Advertisements
Track Severe Weather on mobile